sensor_id;sensor_type;location;lat;lon;timestamp;temperature;humidity
61896;DHT22;47835;52.778;5.956;2023-11-19T00:02:22;12.80;99.90
61896;DHT22;47835;52.778;5.956;2023-11-19T00:04:47;12.80;99.90
61896;DHT22;47835;52.778;5.956;2023-11-19T00:07:13;12.80;99.90
61896;DHT22;47835;52.778;5.956;2023-11-19T00:09:40;12.80;99.90
61896;DHT22;47835;52.778;5.956;2023-11-19T00:12:06;12.80;99.90
61896;DHT22;47835;52.778;5.956;2023-11-19T00:14:32;12.80;99.90
61896;DHT22;47835;52.778;5.956;2023-11-19T00:16:58;12.80;99.90
61896;DHT22;47835;52.778;5.956;2023-11-19T00:19:24;12.90;99.90
61896;DHT22;47835;52.778;5.956;2023-11-19T00:21:50;12.90;99.90
61896;DHT22;47835;52.778;5.956;2023-11-19T00:24:15;12.80;99.90
61896;DHT22;47835;52.778;5.956;2023-11-19T00:26:42;12.80;99.90
61896;DHT22;47835;52.778;5.956;2023-11-19T00:29:08;12.80;99.90
61896;DHT22;47835;52.778;5.956;2023-11-19T00:31:34;12.80;99.90
61896;DHT22;47835;52.778;5.956;2023-11-19T00:34:00;12.70;99.90
61896;DHT22;47835;52.778;5.956;2023-11-19T00:36:27;12.70;99.90
61896;DHT22;47835;52.778;5.956;2023-11-19T00:38:54;12.70;99.90
61896;DHT22;47835;52.778;5.956;2023-11-19T00:41:19;12.70;99.90
61896;DHT22;47835;52.778;5.956;2023-11-19T00:43:45;12.60;99.90
61896;DHT22;47835;52.778;5.956;2023-11-19T00:46:10;12.60;99.90
61896;DHT22;47835;52.778;5.956;2023-11-19T00:48:37;12.60;99.90
61896;DHT22;47835;52.778;5.956;2023-11-19T00:51:02;12.60;99.90
61896;DHT22;47835;52.778;5.956;2023-11-19T00:53:29;12.60;99.90
61896;DHT22;47835;52.778;5.956;2023-11-19T00:55:55;12.60;99.90
61896;DHT22;47835;52.778;5.956;2023-11-19T00:58:20;12.60;99.90
61896;DHT22;47835;52.778;5.956;2023-11-19T01:00:46;12.60;99.90
61896;DHT22;47835;52.778;5.956;2023-11-19T01:03:12;12.70;99.90
61896;DHT22;47835;52.778;5.956;2023-11-19T01:05:38;12.60;99.90
61896;DHT22;47835;52.778;5.956;2023-11-19T01:08:04;12.70;99.90
61896;DHT22;47835;52.778;5.956;2023-11-19T01:10:30;12.60;99.90
61896;DHT22;47835;52.778;5.956;2023-11-19T01:12:56;12.60;99.90
61896;DHT22;47835;52.778;5.956;2023-11-19T01:15:22;12.60;99.90
61896;DHT22;47835;52.778;5.956;2023-11-19T01:17:48;12.60;99.90
61896;DHT22;47835;52.778;5.956;2023-11-19T01:20:14;12.60;99.90
61896;DHT22;47835;52.778;5.956;2023-11-19T01:22:40;12.60;99.90
61896;DHT22;47835;52.778;5.956;2023-11-19T01:25:06;12.50;99.90
61896;DHT22;47835;52.778;5.956;2023-11-19T01:27:32;12.50;99.90
61896;DHT22;47835;52.778;5.956;2023-11-19T01:30:00;12.50;99.90
61896;DHT22;47835;52.778;5.956;2023-11-19T01:32:29;12.50;99.90
61896;DHT22;47835;52.778;5.956;2023-11-19T01:34:54;12.50;99.90
61896;DHT22;47835;52.778;5.956;2023-11-19T01:37:20;12.50;99.90
61896;DHT22;47835;52.778;5.956;2023-11-19T01:39:46;12.50;99.90
61896;DHT22;47835;52.778;5.956;2023-11-19T01:42:11;12.50;99.90
61896;DHT22;47835;52.778;5.956;2023-11-19T01:44:40;12.40;99.90
61896;DHT22;47835;52.778;5.956;2023-11-19T01:47:07;12.40;99.90
61896;DHT22;47835;52.778;5.956;2023-11-19T01:49:33;12.30;99.90
61896;DHT22;47835;52.778;5.956;2023-11-19T01:51:59;12.20;99.90
61896;DHT22;47835;52.778;5.956;2023-11-19T01:54:25;12.20;99.90
61896;DHT22;47835;52.778;5.956;2023-11-19T01:56:52;12.20;99.90
61896;DHT22;47835;52.778;5.956;2023-11-19T01:59:19;12.10;99.90
61896;DHT22;47835;52.778;5.956;2023-11-19T02:01:52;12.10;99.90
61896;DHT22;47835;52.778;5.956;2023-11-19T02:04:18;12.10;99.90
61896;DHT22;47835;52.778;5.956;2023-11-19T02:06:43;12.10;99.90
61896;DHT22;47835;52.778;5.956;2023-11-19T02:09:10;12.20;99.90
61896;DHT22;47835;52.778;5.956;2023-11-19T02:11:36;12.20;99.90
61896;DHT22;47835;52.778;5.956;2023-11-19T02:14:01;12.20;99.90
61896;DHT22;47835;52.778;5.956;2023-11-19T02:16:29;12.20;99.90
61896;DHT22;47835;52.778;5.956;2023-11-19T02:18:55;12.30;99.90
61896;DHT22;47835;52.778;5.956;2023-11-19T02:21:20;12.30;99.90
61896;DHT22;47835;52.778;5.956;2023-11-19T02:23:46;12.30;99.90
61896;DHT22;47835;52.778;5.956;2023-11-19T02:26:25;12.30;99.90
61896;DHT22;47835;52.778;5.956;2023-11-19T02:28:52;12.30;99.90
61896;DHT22;47835;52.778;5.956;2023-11-19T02:31:18;12.30;99.90
61896;DHT22;47835;52.778;5.956;2023-11-19T02:33:44;12.40;99.90
61896;DHT22;47835;52.778;5.956;2023-11-19T02:36:10;12.40;99.90
61896;DHT22;47835;52.778;5.956;2023-11-19T02:38:36;12.30;99.90
61896;DHT22;47835;52.778;5.956;2023-11-19T02:41:04;12.40;99.90
61896;DHT22;47835;52.778;5.956;2023-11-19T02:43:37;12.40;99.90
61896;DHT22;47835;52.778;5.956;2023-11-19T02:46:03;12.40;99.90
61896;DHT22;47835;52.778;5.956;2023-11-19T02:48:36;12.30;99.90
61896;DHT22;47835;52.778;5.956;2023-11-19T02:51:03;12.30;99.90
61896;DHT22;47835;52.778;5.956;2023-11-19T02:53:29;12.20;99.90
61896;DHT22;47835;52.778;5.956;2023-11-19T02:55:55;12.20;99.90
61896;DHT22;47835;52.778;5.956;2023-11-19T02:58:27;12.10;99.90
61896;DHT22;47835;52.778;5.956;2023-11-19T03:00:54;12.20;99.90
61896;DHT22;47835;52.778;5.956;2023-11-19T03:03:26;12.20;99.90
61896;DHT22;47835;52.778;5.956;2023-11-19T03:06:04;12.20;99.90
61896;DHT22;47835;52.778;5.956;2023-11-19T03:08:31;12.10;99.90
61896;DHT22;47835;52.778;5.956;2023-11-19T03:10:58;12.10;99.90
61896;DHT22;47835;52.778;5.956;2023-11-19T03:13:24;12.10;99.90
61896;DHT22;47835;52.778;5.956;2023-11-19T03:15:50;12.00;99.90
61896;DHT22;47835;52.778;5.956;2023-11-19T03:18:15;12.10;99.90
61896;DHT22;47835;52.778;5.956;2023-11-19T03:20:41;12.10;99.90
61896;DHT22;47835;52.778;5.956;2023-11-19T03:23:06;12.00;99.90
61896;DHT22;47835;52.778;5.956;2023-11-19T03:25:32;12.10;99.90
61896;DHT22;47835;52.778;5.956;2023-11-19T03:28:02;12.10;99.90
61896;DHT22;47835;52.778;5.956;2023-11-19T03:30:29;12.10;99.90
61896;DHT22;47835;52.778;5.956;2023-11-19T03:32:55;12.10;99.90
61896;DHT22;47835;52.778;5.956;2023-11-19T03:35:21;12.10;99.90
61896;DHT22;47835;52.778;5.956;2023-11-19T03:37:47;12.10;99.90
61896;DHT22;47835;52.778;5.956;2023-11-19T03:40:13;12.10;99.90
61896;DHT22;47835;52.778;5.956;2023-11-19T03:42:38;12.10;99.90
61896;DHT22;47835;52.778;5.956;2023-11-19T03:45:07;12.10;99.90
61896;DHT22;47835;52.778;5.956;2023-11-19T03:47:36;12.10;99.90
61896;DHT22;47835;52.778;5.956;2023-11-19T03:50:02;12.10;99.90
61896;DHT22;47835;52.778;5.956;2023-11-19T03:52:28;12.10;99.90
61896;DHT22;47835;52.778;5.956;2023-11-19T03:54:54;12.10;99.90
61896;DHT22;47835;52.778;5.956;2023-11-19T03:57:21;12.10;99.90
61896;DHT22;47835;52.778;5.956;2023-11-19T03:59:47;12.00;99.90
61896;DHT22;47835;52.778;5.956;2023-11-19T04:02:12;11.90;99.90
61896;DHT22;47835;52.778;5.956;2023-11-19T04:04:38;11.90;99.90
61896;DHT22;47835;52.778;5.956;2023-11-19T04:07:06;11.80;99.90
61896;DHT22;47835;52.778;5.956;2023-11-19T04:09:32;11.80;99.90
61896;DHT22;47835;52.778;5.956;2023-11-19T04:12:03;11.80;99.90
61896;DHT22;47835;52.778;5.956;2023-11-19T04:14:28;11.70;99.90
61896;DHT22;47835;52.778;5.956;2023-11-19T04:16:54;11.80;99.90
61896;DHT22;47835;52.778;5.956;2023-11-19T04:19:20;11.80;99.90
61896;DHT22;47835;52.778;5.956;2023-11-19T04:21:46;11.80;99.90
61896;DHT22;47835;52.778;5.956;2023-11-19T04:24:12;11.70;99.90
61896;DHT22;47835;52.778;5.956;2023-11-19T04:26:45;11.70;99.90
61896;DHT22;47835;52.778;5.956;2023-11-19T04:29:15;11.80;99.90
61896;DHT22;47835;52.778;5.956;2023-11-19T04:31:43;11.80;99.90
61896;DHT22;47835;52.778;5.956;2023-11-19T04:34:09;11.80;99.90
61896;DHT22;47835;52.778;5.956;2023-11-19T04:36:35;11.80;99.90
61896;DHT22;47835;52.778;5.956;2023-11-19T04:39:03;11.90;99.90
61896;DHT22;47835;52.778;5.956;2023-11-19T04:41:34;11.90;99.90
61896;DHT22;47835;52.778;5.956;2023-11-19T04:43:59;12.00;99.90
61896;DHT22;47835;52.778;5.956;2023-11-19T04:46:25;12.10;99.90
61896;DHT22;47835;52.778;5.956;2023-11-19T04:48:51;12.10;99.90
61896;DHT22;47835;52.778;5.956;2023-11-19T04:51:16;12.10;99.90
61896;DHT22;47835;52.778;5.956;2023-11-19T04:53:42;12.10;99.90
61896;DHT22;47835;52.778;5.956;2023-11-19T04:56:08;12.10;99.90
61896;DHT22;47835;52.778;5.956;2023-11-19T04:58:34;12.10;99.90
61896;DHT22;47835;52.778;5.956;2023-11-19T05:01:03;12.10;99.90
61896;DHT22;47835;52.778;5.956;2023-11-19T05:03:29;12.10;99.90
61896;DHT22;47835;52.778;5.956;2023-11-19T05:05:55;12.00;99.90
61896;DHT22;47835;52.778;5.956;2023-11-19T05:08:20;11.90;99.90
61896;DHT22;47835;52.778;5.956;2023-11-19T05:10:46;11.90;99.90
61896;DHT22;47835;52.778;5.956;2023-11-19T05:13:11;12.00;99.90
61896;DHT22;47835;52.778;5.956;2023-11-19T05:15:38;11.90;99.90
61896;DHT22;47835;52.778;5.956;2023-11-19T05:18:03;11.90;99.90
61896;DHT22;47835;52.778;5.956;2023-11-19T05:20:30;11.80;99.90
61896;DHT22;47835;52.778;5.956;2023-11-19T05:22:55;11.90;99.90
61896;DHT22;47835;52.778;5.956;2023-11-19T05:25:21;11.90;99.90
61896;DHT22;47835;52.778;5.956;2023-11-19T05:27:47;11.80;99.90
61896;DHT22;47835;52.778;5.956;2023-11-19T05:30:12;11.90;99.90
61896;DHT22;47835;52.778;5.956;2023-11-19T05:32:38;11.80;99.90
61896;DHT22;47835;52.778;5.956;2023-11-19T05:35:04;11.90;99.90
61896;DHT22;47835;52.778;5.956;2023-11-19T05:37:30;11.80;99.90
61896;DHT22;47835;52.778;5.956;2023-11-19T05:39:55;11.80;99.90
61896;DHT22;47835;52.778;5.956;2023-11-19T05:42:21;11.80;99.90
61896;DHT22;47835;52.778;5.956;2023-11-19T05:44:46;11.80;99.90
61896;DHT22;47835;52.778;5.956;2023-11-19T05:47:12;11.70;99.90
61896;DHT22;47835;52.778;5.956;2023-11-19T05:49:37;11.70;99.90
61896;DHT22;47835;52.778;5.956;2023-11-19T05:52:04;11.60;99.90
61896;DHT22;47835;52.778;5.956;2023-11-19T05:54:33;11.70;99.90
61896;DHT22;47835;52.778;5.956;2023-11-19T05:57:04;11.60;99.90
61896;DHT22;47835;52.778;5.956;2023-11-19T05:59:29;11.70;99.90
61896;DHT22;47835;52.778;5.956;2023-11-19T06:01:57;11.70;99.90
61896;DHT22;47835;52.778;5.956;2023-11-19T06:04:22;11.80;99.90
61896;DHT22;47835;52.778;5.956;2023-11-19T06:06:48;11.80;99.90
61896;DHT22;47835;52.778;5.956;2023-11-19T06:09:13;11.90;99.90
61896;DHT22;47835;52.778;5.956;2023-11-19T06:11:39;11.90;99.90
61896;DHT22;47835;52.778;5.956;2023-11-19T06:14:06;11.90;99.90
61896;DHT22;47835;52.778;5.956;2023-11-19T06:16:32;11.90;99.90
61896;DHT22;47835;52.778;5.956;2023-11-19T06:18:58;11.90;99.90
61896;DHT22;47835;52.778;5.956;2023-11-19T06:21:23;12.00;99.90
61896;DHT22;47835;52.778;5.956;2023-11-19T06:23:50;12.00;99.90
61896;DHT22;47835;52.778;5.956;2023-11-19T06:26:17;11.90;99.90
61896;DHT22;47835;52.778;5.956;2023-11-19T06:28:43;11.80;99.90
61896;DHT22;47835;52.778;5.956;2023-11-19T06:31:09;11.90;99.90
61896;DHT22;47835;52.778;5.956;2023-11-19T06:33:35;11.80;99.90
61896;DHT22;47835;52.778;5.956;2023-11-19T06:36:00;11.70;99.90
61896;DHT22;47835;52.778;5.956;2023-11-19T06:38:26;11.60;99.90
61896;DHT22;47835;52.778;5.956;2023-11-19T06:40:51;11.60;99.90
61896;DHT22;47835;52.778;5.956;2023-11-19T06:43:17;11.60;99.90
61896;DHT22;47835;52.778;5.956;2023-11-19T06:45:43;11.60;99.90
61896;DHT22;47835;52.778;5.956;2023-11-19T06:48:08;11.60;99.90
61896;DHT22;47835;52.778;5.956;2023-11-19T06:50:34;11.60;99.90
61896;DHT22;47835;52.778;5.956;2023-11-19T06:52:59;11.60;99.90
61896;DHT22;47835;52.778;5.956;2023-11-19T06:55:26;11.50;99.90
61896;DHT22;47835;52.778;5.956;2023-11-19T06:57:52;11.60;99.90
61896;DHT22;47835;52.778;5.956;2023-11-19T07:00:17;11.50;99.90
61896;DHT22;47835;52.778;5.956;2023-11-19T07:02:44;11.50;99.90
61896;DHT22;47835;52.778;5.956;2023-11-19T07:05:09;11.50;99.90
61896;DHT22;47835;52.778;5.956;2023-11-19T07:07:35;11.50;99.90
61896;DHT22;47835;52.778;5.956;2023-11-19T07:10:01;11.50;99.90
61896;DHT22;47835;52.778;5.956;2023-11-19T07:12:28;11.40;99.90
61896;DHT22;47835;52.778;5.956;2023-11-19T07:14:53;11.40;99.90
61896;DHT22;47835;52.778;5.956;2023-11-19T07:17:20;11.40;99.90
61896;DHT22;47835;52.778;5.956;2023-11-19T07:19:47;11.40;99.90
61896;DHT22;47835;52.778;5.956;2023-11-19T07:22:12;11.40;99.90
61896;DHT22;47835;52.778;5.956;2023-11-19T07:24:41;11.40;99.90
61896;DHT22;47835;52.778;5.956;2023-11-19T07:27:07;11.40;99.90
61896;DHT22;47835;52.778;5.956;2023-11-19T07:29:34;11.30;99.90
61896;DHT22;47835;52.778;5.956;2023-11-19T07:32:00;11.40;99.90
61896;DHT22;47835;52.778;5.956;2023-11-19T07:34:27;11.50;99.90
61896;DHT22;47835;52.778;5.956;2023-11-19T07:36:54;11.50;99.90
61896;DHT22;47835;52.778;5.956;2023-11-19T07:39:22;11.50;99.90
61896;DHT22;47835;52.778;5.956;2023-11-19T07:41:48;11.50;99.90
61896;DHT22;47835;52.778;5.956;2023-11-19T07:44:20;11.60;99.90
61896;DHT22;47835;52.778;5.956;2023-11-19T07:46:46;11.60;99.90
61896;DHT22;47835;52.778;5.956;2023-11-19T07:49:13;11.60;99.90
61896;DHT22;47835;52.778;5.956;2023-11-19T07:51:39;11.60;99.90
61896;DHT22;47835;52.778;5.956;2023-11-19T07:54:05;11.70;99.90
61896;DHT22;47835;52.778;5.956;2023-11-19T07:56:34;11.70;99.90
61896;DHT22;47835;52.778;5.956;2023-11-19T07:59:01;11.80;99.90
61896;DHT22;47835;52.778;5.956;2023-11-19T08:01:27;11.80;99.90
61896;DHT22;47835;52.778;5.956;2023-11-19T08:03:52;11.80;99.90
61896;DHT22;47835;52.778;5.956;2023-11-19T08:06:18;11.90;99.90
61896;DHT22;47835;52.778;5.956;2023-11-19T08:08:44;12.00;99.90
61896;DHT22;47835;52.778;5.956;2023-11-19T08:11:10;11.90;99.90
61896;DHT22;47835;52.778;5.956;2023-11-19T08:13:36;11.90;99.90
61896;DHT22;47835;52.778;5.956;2023-11-19T08:16:01;11.80;99.90
61896;DHT22;47835;52.778;5.956;2023-11-19T08:18:27;11.80;99.90
61896;DHT22;47835;52.778;5.956;2023-11-19T08:20:53;11.80;99.90
61896;DHT22;47835;52.778;5.956;2023-11-19T08:23:19;11.80;99.90
61896;DHT22;47835;52.778;5.956;2023-11-19T08:25:45;11.80;99.90
61896;DHT22;47835;52.778;5.956;2023-11-19T08:28:11;11.90;99.90
61896;DHT22;47835;52.778;5.956;2023-11-19T08:37:43;12.00;99.90
61896;DHT22;47835;52.778;5.956;2023-11-19T08:40:38;12.00;99.90
61896;DHT22;47835;52.778;5.956;2023-11-19T08:43:10;12.00;99.90
61896;DHT22;47835;52.778;5.956;2023-11-19T08:45:56;12.00;99.90
61896;DHT22;47835;52.778;5.956;2023-11-19T08:48:22;11.90;99.90
61896;DHT22;47835;52.778;5.956;2023-11-19T08:50:48;12.00;99.90
61896;DHT22;47835;52.778;5.956;2023-11-19T08:53:13;12.00;99.90
61896;DHT22;47835;52.778;5.956;2023-11-19T08:55:39;12.00;99.90
61896;DHT22;47835;52.778;5.956;2023-11-19T08:58:05;12.10;99.90
61896;DHT22;47835;52.778;5.956;2023-11-19T09:00:30;12.10;99.90
61896;DHT22;47835;52.778;5.956;2023-11-19T09:02:58;12.20;99.90
61896;DHT22;47835;52.778;5.956;2023-11-19T09:05:32;12.30;99.90
61896;DHT22;47835;52.778;5.956;2023-11-19T09:07:58;12.40;99.90
61896;DHT22;47835;52.778;5.956;2023-11-19T09:10:28;12.50;99.90
61896;DHT22;47835;52.778;5.956;2023-11-19T09:13:00;12.60;99.90
61896;DHT22;47835;52.778;5.956;2023-11-19T09:15:31;12.70;99.90
61896;DHT22;47835;52.778;5.956;2023-11-19T09:17:57;12.70;99.90
61896;DHT22;47835;52.778;5.956;2023-11-19T09:20:26;12.70;99.90
61896;DHT22;47835;52.778;5.956;2023-11-19T09:22:51;12.60;99.90
61896;DHT22;47835;52.778;5.956;2023-11-19T09:25:18;12.50;99.90
61896;DHT22;47835;52.778;5.956;2023-11-19T09:27:44;12.50;99.90
61896;DHT22;47835;52.778;5.956;2023-11-19T09:30:10;12.50;99.90
61896;DHT22;47835;52.778;5.956;2023-11-19T09:32:35;12.40;99.90
61896;DHT22;47835;52.778;5.956;2023-11-19T09:35:03;12.50;99.90
61896;DHT22;47835;52.778;5.956;2023-11-19T09:37:28;12.50;99.90
61896;DHT22;47835;52.778;5.956;2023-11-19T09:39:56;12.50;99.90
61896;DHT22;47835;52.778;5.956;2023-11-19T09:42:24;12.40;99.90
61896;DHT22;47835;52.778;5.956;2023-11-19T09:44:57;12.40;99.90
61896;DHT22;47835;52.778;5.956;2023-11-19T09:47:23;12.40;99.90
61896;DHT22;47835;52.778;5.956;2023-11-19T09:49:50;12.40;99.90
61896;DHT22;47835;52.778;5.956;2023-11-19T09:52:16;12.40;99.90
61896;DHT22;47835;52.778;5.956;2023-11-19T09:54:42;12.40;99.90
61896;DHT22;47835;52.778;5.956;2023-11-19T09:57:07;12.30;99.90
61896;DHT22;47835;52.778;5.956;2023-11-19T09:59:35;12.40;99.90
61896;DHT22;47835;52.778;5.956;2023-11-19T10:02:02;12.40;99.90
61896;DHT22;47835;52.778;5.956;2023-11-19T10:04:30;12.40;99.90
61896;DHT22;47835;52.778;5.956;2023-11-19T10:06:56;12.40;99.90
61896;DHT22;47835;52.778;5.956;2023-11-19T10:09:21;12.50;99.90
61896;DHT22;47835;52.778;5.956;2023-11-19T10:11:49;12.50;99.90
61896;DHT22;47835;52.778;5.956;2023-11-19T10:14:22;12.50;99.90
61896;DHT22;47835;52.778;5.956;2023-11-19T10:16:48;12.60;99.90
61896;DHT22;47835;52.778;5.956;2023-11-19T10:19:20;12.70;99.90
61896;DHT22;47835;52.778;5.956;2023-11-19T10:21:46;12.80;99.90
61896;DHT22;47835;52.778;5.956;2023-11-19T10:24:12;12.80;99.90
61896;DHT22;47835;52.778;5.956;2023-11-19T10:26:38;12.70;99.90
61896;DHT22;47835;52.778;5.956;2023-11-19T10:29:03;12.70;99.90
61896;DHT22;47835;52.778;5.956;2023-11-19T10:31:29;12.70;99.90
61896;DHT22;47835;52.778;5.956;2023-11-19T10:33:55;12.60;99.90
61896;DHT22;47835;52.778;5.956;2023-11-19T10:36:21;12.60;99.90
61896;DHT22;47835;52.778;5.956;2023-11-19T10:38:53;12.50;99.90
61896;DHT22;47835;52.778;5.956;2023-11-19T10:41:32;12.50;99.90
61896;DHT22;47835;52.778;5.956;2023-11-19T10:44:00;12.40;99.90
61896;DHT22;47835;52.778;5.956;2023-11-19T10:46:40;12.50;99.90
61896;DHT22;47835;52.778;5.956;2023-11-19T10:49:06;12.50;99.90
61896;DHT22;47835;52.778;5.956;2023-11-19T10:51:32;12.50;99.90
61896;DHT22;47835;52.778;5.956;2023-11-19T10:54:02;12.50;99.90
61896;DHT22;47835;52.778;5.956;2023-11-19T10:56:32;12.50;99.90
61896;DHT22;47835;52.778;5.956;2023-11-19T10:59:01;12.50;99.90
61896;DHT22;47835;52.778;5.956;2023-11-19T11:01:44;12.50;99.90
61896;DHT22;47835;52.778;5.956;2023-11-19T11:04:14;12.50;99.90
61896;DHT22;47835;52.778;5.956;2023-11-19T11:06:43;12.50;99.90
61896;DHT22;47835;52.778;5.956;2023-11-19T11:09:10;12.60;99.90
61896;DHT22;47835;52.778;5.956;2023-11-19T11:11:40;12.60;99.90
61896;DHT22;47835;52.778;5.956;2023-11-19T11:14:07;12.70;99.90
61896;DHT22;47835;52.778;5.956;2023-11-19T11:16:35;12.70;99.90
61896;DHT22;47835;52.778;5.956;2023-11-19T11:19:03;12.70;99.90
61896;DHT22;47835;52.778;5.956;2023-11-19T11:21:29;12.70;99.90
61896;DHT22;47835;52.778;5.956;2023-11-19T11:24:13;12.60;99.90
61896;DHT22;47835;52.778;5.956;2023-11-19T11:35:49;12.30;99.90
61896;DHT22;47835;52.778;5.956;2023-11-19T11:38:21;12.20;99.90
61896;DHT22;47835;52.778;5.956;2023-11-19T11:50:09;12.00;99.90
61896;DHT22;47835;52.778;5.956;2023-11-19T11:55:35;11.70;99.90
61896;DHT22;47835;52.778;5.956;2023-11-19T11:58:07;11.70;99.90
61896;DHT22;47835;52.778;5.956;2023-11-19T12:01:17;11.70;99.90
61896;DHT22;47835;52.778;5.956;2023-11-19T12:04:01;11.60;99.90
61896;DHT22;47835;52.778;5.956;2023-11-19T12:06:32;11.60;99.90
61896;DHT22;47835;52.778;5.956;2023-11-19T12:09:22;11.70;99.90
61896;DHT22;47835;52.778;5.956;2023-11-19T12:11:48;11.80;99.90
61896;DHT22;47835;52.778;5.956;2023-11-19T12:17:42;11.90;99.90
61896;DHT22;47835;52.778;5.956;2023-11-19T12:20:20;12.00;99.90
61896;DHT22;47835;52.778;5.956;2023-11-19T12:23:30;12.00;99.90
61896;DHT22;47835;52.778;5.956;2023-11-19T12:29:57;12.00;99.90
61896;DHT22;47835;52.778;5.956;2023-11-19T12:32:41;12.10;99.90
61896;DHT22;47835;52.778;5.956;2023-11-19T12:39:19;12.20;99.90
61896;DHT22;47835;52.778;5.956;2023-11-19T12:42:09;12.30;99.90
61896;DHT22;47835;52.778;5.956;2023-11-19T12:51:59;12.40;99.90
61896;DHT22;47835;52.778;5.956;2023-11-19T12:54:43;12.30;99.90
61896;DHT22;47835;52.778;5.956;2023-11-19T12:57:43;12.40;99.90
61896;DHT22;47835;52.778;5.956;2023-11-19T13:00:31;12.30;99.90
61896;DHT22;47835;52.778;5.956;2023-11-19T13:03:12;12.50;99.90
61896;DHT22;47835;52.778;5.956;2023-11-19T13:05:49;12.50;99.90
61896;DHT22;47835;52.778;5.956;2023-11-19T13:08:53;12.50;99.90
61896;DHT22;47835;52.778;5.956;2023-11-19T13:11:42;12.50;99.90
61896;DHT22;47835;52.778;5.956;2023-11-19T13:17:51;12.40;99.90
61896;DHT22;47835;52.778;5.956;2023-11-19T13:23:54;12.20;99.90
61896;DHT22;47835;52.778;5.956;2023-11-19T13:26:34;12.10;99.90
61896;DHT22;47835;52.778;5.956;2023-11-19T13:34:43;11.90;99.90
61896;DHT22;47835;52.778;5.956;2023-11-19T13:37:08;11.90;99.90
61896;DHT22;47835;52.778;5.956;2023-11-19T13:39:34;11.60;99.90
61896;DHT22;47835;52.778;5.956;2023-11-19T13:42:02;11.50;99.90
61896;DHT22;47835;52.778;5.956;2023-11-19T13:44:28;11.50;99.90
61896;DHT22;47835;52.778;5.956;2023-11-19T13:47:04;11.40;99.90
61896;DHT22;47835;52.778;5.956;2023-11-19T13:49:30;11.40;99.90
61896;DHT22;47835;52.778;5.956;2023-11-19T13:51:56;11.40;99.90
61896;DHT22;47835;52.778;5.956;2023-11-19T13:54:21;11.40;99.90
61896;DHT22;47835;52.778;5.956;2023-11-19T13:56:48;11.40;99.90
61896;DHT22;47835;52.778;5.956;2023-11-19T13:59:14;11.40;99.90
61896;DHT22;47835;52.778;5.956;2023-11-19T14:01:40;11.50;99.90
61896;DHT22;47835;52.778;5.956;2023-11-19T14:04:05;11.60;99.90
61896;DHT22;47835;52.778;5.956;2023-11-19T14:06:31;11.60;99.90
61896;DHT22;47835;52.778;5.956;2023-11-19T14:08:57;11.70;99.90
61896;DHT22;47835;52.778;5.956;2023-11-19T14:11:26;11.70;99.90
61896;DHT22;47835;52.778;5.956;2023-11-19T14:13:52;11.70;99.90
61896;DHT22;47835;52.778;5.956;2023-11-19T14:16:18;11.70;99.90
61896;DHT22;47835;52.778;5.956;2023-11-19T14:18:48;11.70;99.90
61896;DHT22;47835;52.778;5.956;2023-11-19T14:21:14;11.70;99.90
61896;DHT22;47835;52.778;5.956;2023-11-19T14:23:40;11.80;99.90
61896;DHT22;47835;52.778;5.956;2023-11-19T14:26:05;11.80;99.90
61896;DHT22;47835;52.778;5.956;2023-11-19T14:28:34;11.70;99.90
61896;DHT22;47835;52.778;5.956;2023-11-19T14:31:06;11.80;99.90
61896;DHT22;47835;52.778;5.956;2023-11-19T14:33:32;11.80;99.90
61896;DHT22;47835;52.778;5.956;2023-11-19T14:36:00;11.80;99.90
61896;DHT22;47835;52.778;5.956;2023-11-19T14:38:49;11.80;99.90
61896;DHT22;47835;52.778;5.956;2023-11-19T14:41:14;11.90;99.90
61896;DHT22;47835;52.778;5.956;2023-11-19T14:43:42;11.90;99.90
61896;DHT22;47835;52.778;5.956;2023-11-19T14:46:25;11.90;99.90
61896;DHT22;47835;52.778;5.956;2023-11-19T14:48:51;12.00;99.90
61896;DHT22;47835;52.778;5.956;2023-11-19T14:51:22;12.00;99.90
61896;DHT22;47835;52.778;5.956;2023-11-19T14:54:16;12.10;99.90
61896;DHT22;47835;52.778;5.956;2023-11-19T14:56:44;12.10;99.90
61896;DHT22;47835;52.778;5.956;2023-11-19T14:59:10;12.00;99.90
61896;DHT22;47835;52.778;5.956;2023-11-19T15:01:54;12.10;99.90
61896;DHT22;47835;52.778;5.956;2023-11-19T15:04:20;12.10;99.90
61896;DHT22;47835;52.778;5.956;2023-11-19T15:07:04;12.10;99.90
61896;DHT22;47835;52.778;5.956;2023-11-19T15:09:32;12.10;99.90
61896;DHT22;47835;52.778;5.956;2023-11-19T15:11:58;12.10;99.90
61896;DHT22;47835;52.778;5.956;2023-11-19T15:14:24;12.00;99.90
61896;DHT22;47835;52.778;5.956;2023-11-19T15:16:50;12.00;99.90
61896;DHT22;47835;52.778;5.956;2023-11-19T15:19:16;12.00;99.90
61896;DHT22;47835;52.778;5.956;2023-11-19T15:21:42;11.80;99.90
61896;DHT22;47835;52.778;5.956;2023-11-19T15:24:08;11.80;99.90
61896;DHT22;47835;52.778;5.956;2023-11-19T15:26:34;11.70;99.90
61896;DHT22;47835;52.778;5.956;2023-11-19T15:29:09;11.60;99.90
61896;DHT22;47835;52.778;5.956;2023-11-19T15:31:35;11.50;99.90
61896;DHT22;47835;52.778;5.956;2023-11-19T15:34:00;11.50;99.90
61896;DHT22;47835;52.778;5.956;2023-11-19T15:36:26;11.40;99.90
61896;DHT22;47835;52.778;5.956;2023-11-19T15:38:51;11.30;99.90
61896;DHT22;47835;52.778;5.956;2023-11-19T15:41:17;11.40;99.90
61896;DHT22;47835;52.778;5.956;2023-11-19T15:43:43;11.30;99.90
61896;DHT22;47835;52.778;5.956;2023-11-19T15:46:09;11.40;99.90
61896;DHT22;47835;52.778;5.956;2023-11-19T15:48:35;11.40;99.90
61896;DHT22;47835;52.778;5.956;2023-11-19T15:51:01;11.40;99.90
61896;DHT22;47835;52.778;5.956;2023-11-19T15:53:28;11.30;99.90
61896;DHT22;47835;52.778;5.956;2023-11-19T15:55:53;11.30;99.90
61896;DHT22;47835;52.778;5.956;2023-11-19T15:58:19;11.30;99.90
61896;DHT22;47835;52.778;5.956;2023-11-19T16:00:46;11.20;99.90
61896;DHT22;47835;52.778;5.956;2023-11-19T16:03:12;11.20;99.90
61896;DHT22;47835;52.778;5.956;2023-11-19T16:05:38;11.20;99.90
61896;DHT22;47835;52.778;5.956;2023-11-19T16:08:04;11.10;99.90
61896;DHT22;47835;52.778;5.956;2023-11-19T16:10:29;11.10;99.90
61896;DHT22;47835;52.778;5.956;2023-11-19T16:12:55;11.10;99.90
61896;DHT22;47835;52.778;5.956;2023-11-19T16:15:21;11.10;99.90
61896;DHT22;47835;52.778;5.956;2023-11-19T16:17:46;11.00;99.90
61896;DHT22;47835;52.778;5.956;2023-11-19T16:20:14;11.00;99.90
61896;DHT22;47835;52.778;5.956;2023-11-19T16:22:40;11.00;99.90
61896;DHT22;47835;52.778;5.956;2023-11-19T16:25:08;11.10;99.90
61896;DHT22;47835;52.778;5.956;2023-11-19T16:27:33;11.10;99.90
61896;DHT22;47835;52.778;5.956;2023-11-19T16:29:59;11.10;99.90
61896;DHT22;47835;52.778;5.956;2023-11-19T16:32:26;11.10;99.90
61896;DHT22;47835;52.778;5.956;2023-11-19T16:34:51;11.10;99.90
61896;DHT22;47835;52.778;5.956;2023-11-19T16:37:18;11.10;99.90